sensor_id;sensor_type;location;lat;lon;timestamp;temperature;humidity
13472;DHT22;6808;49.444;11.034;2024-03-23T00:54:35;10.20;99.90
13472;DHT22;6808;49.444;11.034;2024-03-23T00:57:02;10.20;99.90
13472;DHT22;6808;49.444;11.034;2024-03-23T00:59:27;10.10;99.90
13472;DHT22;6808;49.444;11.034;2024-03-23T01:01:54;10.40;99.90
13472;DHT22;6808;49.444;11.034;2024-03-23T01:04:20;9.90;99.90
13472;DHT22;6808;49.444;11.034;2024-03-23T01:06:45;10.20;99.90
13472;DHT22;6808;49.444;11.034;2024-03-23T01:09:11;10.00;99.90
13472;DHT22;6808;49.444;11.034;2024-03-23T01:11:37;9.90;99.90
13472;DHT22;6808;49.444;11.034;2024-03-23T01:14:03;9.70;99.90
13472;DHT22;6808;49.444;11.034;2024-03-23T01:16:28;9.60;99.90
13472;DHT22;6808;49.444;11.034;2024-03-23T01:18:54;9.60;99.90
13472;DHT22;6808;49.444;11.034;2024-03-23T01:21:19;9.50;99.90
13472;DHT22;6808;49.444;11.034;2024-03-23T01:23:45;9.50;99.90
13472;DHT22;6808;49.444;11.034;2024-03-23T01:26:11;9.60;99.90
13472;DHT22;6808;49.444;11.034;2024-03-23T01:28:36;9.60;99.90
13472;DHT22;6808;49.444;11.034;2024-03-23T01:31:02;9.70;99.90
13472;DHT22;6808;49.444;11.034;2024-03-23T01:33:28;9.70;99.90
13472;DHT22;6808;49.444;11.034;2024-03-23T01:35:53;9.70;99.90
13472;DHT22;6808;49.444;11.034;2024-03-23T01:38:19;9.70;99.90
13472;DHT22;6808;49.444;11.034;2024-03-23T01:40:45;9.80;99.90
13472;DHT22;6808;49.444;11.034;2024-03-23T01:43:10;9.80;99.90
13472;DHT22;6808;49.444;11.034;2024-03-23T01:45:36;9.90;99.90
13472;DHT22;6808;49.444;11.034;2024-03-23T01:48:02;9.90;99.90
13472;DHT22;6808;49.444;11.034;2024-03-23T01:50:28;9.90;99.90
13472;DHT22;6808;49.444;11.034;2024-03-23T01:52:56;9.90;99.90
13472;DHT22;6808;49.444;11.034;2024-03-23T01:55:21;9.90;99.90
13472;DHT22;6808;49.444;11.034;2024-03-23T01:57:47;10.00;99.90
13472;DHT22;6808;49.444;11.034;2024-03-23T02:00:13;9.90;99.90
13472;DHT22;6808;49.444;11.034;2024-03-23T02:02:43;10.00;99.90
13472;DHT22;6808;49.444;11.034;2024-03-23T02:05:09;10.00;99.90
13472;DHT22;6808;49.444;11.034;2024-03-23T02:07:35;10.00;99.90
13472;DHT22;6808;49.444;11.034;2024-03-23T02:10:01;10.00;99.90
13472;DHT22;6808;49.444;11.034;2024-03-23T02:12:27;10.10;99.90
13472;DHT22;6808;49.444;11.034;2024-03-23T02:14:52;10.00;99.90
13472;DHT22;6808;49.444;11.034;2024-03-23T02:17:18;10.00;99.90
13472;DHT22;6808;49.444;11.034;2024-03-23T02:19:43;10.00;99.90
13472;DHT22;6808;49.444;11.034;2024-03-23T02:22:09;10.00;99.90
13472;DHT22;6808;49.444;11.034;2024-03-23T02:24:37;10.00;99.90
13472;DHT22;6808;49.444;11.034;2024-03-23T02:27:02;10.00;99.90
13472;DHT22;6808;49.444;11.034;2024-03-23T02:29:28;10.00;99.90
13472;DHT22;6808;49.444;11.034;2024-03-23T02:31:54;10.00;99.90
13472;DHT22;6808;49.444;11.034;2024-03-23T02:34:19;10.00;99.90
13472;DHT22;6808;49.444;11.034;2024-03-23T02:36:45;10.00;99.90
13472;DHT22;6808;49.444;11.034;2024-03-23T02:39:10;10.00;99.90
13472;DHT22;6808;49.444;11.034;2024-03-23T02:41:36;10.00;99.90
13472;DHT22;6808;49.444;11.034;2024-03-23T02:44:02;10.10;99.90
13472;DHT22;6808;49.444;11.034;2024-03-23T02:46:27;10.10;99.90
13472;DHT22;6808;49.444;11.034;2024-03-23T02:48:53;10.10;99.90
13472;DHT22;6808;49.444;11.034;2024-03-23T02:51:18;10.10;99.90
13472;DHT22;6808;49.444;11.034;2024-03-23T02:53:44;10.10;99.90
13472;DHT22;6808;49.444;11.034;2024-03-23T02:56:10;10.10;99.90
13472;DHT22;6808;49.444;11.034;2024-03-23T02:58:41;10.10;99.90
13472;DHT22;6808;49.444;11.034;2024-03-23T03:01:06;10.10;99.90
13472;DHT22;6808;49.444;11.034;2024-03-23T03:03:32;10.20;99.90
13472;DHT22;6808;49.444;11.034;2024-03-23T03:05:58;10.10;99.90
13472;DHT22;6808;49.444;11.034;2024-03-23T03:08:23;10.10;99.90
13472;DHT22;6808;49.444;11.034;2024-03-23T03:10:49;10.20;99.90
13472;DHT22;6808;49.444;11.034;2024-03-23T03:13:14;10.20;99.80
13472;DHT22;6808;49.444;11.034;2024-03-23T03:15:43;10.20;99.70
13472;DHT22;6808;49.444;11.034;2024-03-23T03:18:09;10.20;99.90
13472;DHT22;6808;49.444;11.034;2024-03-23T03:20:38;10.20;99.90
13472;DHT22;6808;49.444;11.034;2024-03-23T03:23:05;10.20;99.90
13472;DHT22;6808;49.444;11.034;2024-03-23T03:25:30;10.20;99.90
13472;DHT22;6808;49.444;11.034;2024-03-23T03:27:56;10.20;99.90
13472;DHT22;6808;49.444;11.034;2024-03-23T03:30:21;10.20;99.90
13472;DHT22;6808;49.444;11.034;2024-03-23T03:32:47;10.20;99.90
13472;DHT22;6808;49.444;11.034;2024-03-23T03:35:12;10.20;99.90
13472;DHT22;6808;49.444;11.034;2024-03-23T03:37:38;10.20;99.90
13472;DHT22;6808;49.444;11.034;2024-03-23T03:40:04;10.20;99.90
13472;DHT22;6808;49.444;11.034;2024-03-23T03:42:29;10.20;99.90
13472;DHT22;6808;49.444;11.034;2024-03-23T03:44:55;10.20;99.90
13472;DHT22;6808;49.444;11.034;2024-03-23T03:47:20;10.20;99.90
13472;DHT22;6808;49.444;11.034;2024-03-23T03:49:47;10.20;99.90
13472;DHT22;6808;49.444;11.034;2024-03-23T03:52:13;10.20;99.90
13472;DHT22;6808;49.444;11.034;2024-03-23T03:54:38;10.20;99.90
13472;DHT22;6808;49.444;11.034;2024-03-23T03:57:04;10.20;99.90
13472;DHT22;6808;49.444;11.034;2024-03-23T03:59:29;10.20;99.90
13472;DHT22;6808;49.444;11.034;2024-03-23T04:01:55;10.30;99.90
13472;DHT22;6808;49.444;11.034;2024-03-23T04:04:20;10.30;99.90
13472;DHT22;6808;49.444;11.034;2024-03-23T04:06:47;10.30;99.90
13472;DHT22;6808;49.444;11.034;2024-03-23T04:09:13;10.60;99.90
13472;DHT22;6808;49.444;11.034;2024-03-23T04:11:38;10.30;99.90
13472;DHT22;6808;49.444;11.034;2024-03-23T04:14:04;10.20;99.90
13472;DHT22;6808;49.444;11.034;2024-03-23T04:16:34;10.20;99.90
13472;DHT22;6808;49.444;11.034;2024-03-23T04:19:00;10.20;99.90
13472;DHT22;6808;49.444;11.034;2024-03-23T04:21:25;10.10;99.90
13472;DHT22;6808;49.444;11.034;2024-03-23T04:23:51;10.10;99.90
13472;DHT22;6808;49.444;11.034;2024-03-23T04:26:17;10.00;99.90
13472;DHT22;6808;49.444;11.034;2024-03-23T04:28:43;10.10;99.90
13472;DHT22;6808;49.444;11.034;2024-03-23T04:31:09;10.00;99.90
13472;DHT22;6808;49.444;11.034;2024-03-23T04:33:34;10.00;99.90
13472;DHT22;6808;49.444;11.034;2024-03-23T04:36:00;10.00;99.90
13472;DHT22;6808;49.444;11.034;2024-03-23T04:38:25;10.10;99.90
13472;DHT22;6808;49.444;11.034;2024-03-23T04:40:58;10.10;99.90
13472;DHT22;6808;49.444;11.034;2024-03-23T04:43:23;10.00;99.90
13472;DHT22;6808;49.444;11.034;2024-03-23T04:45:49;10.10;99.90
13472;DHT22;6808;49.444;11.034;2024-03-23T04:48:15;9.90;99.90
13472;DHT22;6808;49.444;11.034;2024-03-23T04:50:40;9.90;99.90
13472;DHT22;6808;49.444;11.034;2024-03-23T04:53:07;9.90;99.90
13472;DHT22;6808;49.444;11.034;2024-03-23T04:55:32;9.90;99.90
13472;DHT22;6808;49.444;11.034;2024-03-23T04:57:58;9.80;99.90
13472;DHT22;6808;49.444;11.034;2024-03-23T05:00:23;9.70;99.90
13472;DHT22;6808;49.444;11.034;2024-03-23T05:02:50;10.20;99.90
13472;DHT22;6808;49.444;11.034;2024-03-23T05:05:15;9.70;99.90
13472;DHT22;6808;49.444;11.034;2024-03-23T05:07:41;9.70;99.90
13472;DHT22;6808;49.444;11.034;2024-03-23T05:10:08;9.70;99.90
13472;DHT22;6808;49.444;11.034;2024-03-23T05:12:37;10.20;99.90
13472;DHT22;6808;49.444;11.034;2024-03-23T05:15:04;9.70;99.90
13472;DHT22;6808;49.444;11.034;2024-03-23T05:17:30;9.70;99.90
13472;DHT22;6808;49.444;11.034;2024-03-23T05:19:56;9.60;99.90
13472;DHT22;6808;49.444;11.034;2024-03-23T05:22:22;9.60;99.90
13472;DHT22;6808;49.444;11.034;2024-03-23T05:24:48;9.60;99.90
13472;DHT22;6808;49.444;11.034;2024-03-23T05:27:13;9.60;99.90
13472;DHT22;6808;49.444;11.034;2024-03-23T05:29:39;9.60;99.90
13472;DHT22;6808;49.444;11.034;2024-03-23T05:32:04;9.60;99.90
13472;DHT22;6808;49.444;11.034;2024-03-23T05:34:30;9.70;99.90
13472;DHT22;6808;49.444;11.034;2024-03-23T05:36:55;9.70;99.90
13472;DHT22;6808;49.444;11.034;2024-03-23T05:39:21;9.80;99.90
13472;DHT22;6808;49.444;11.034;2024-03-23T05:41:48;9.70;99.90
13472;DHT22;6808;49.444;11.034;2024-03-23T05:44:13;10.30;99.90
13472;DHT22;6808;49.444;11.034;2024-03-23T05:46:40;9.90;99.90
13472;DHT22;6808;49.444;11.034;2024-03-23T05:49:06;9.90;99.90
13472;DHT22;6808;49.444;11.034;2024-03-23T05:51:32;10.10;99.90
13472;DHT22;6808;49.444;11.034;2024-03-23T05:53:57;10.10;99.90
13472;DHT22;6808;49.444;11.034;2024-03-23T05:56:23;10.20;99.90
13472;DHT22;6808;49.444;11.034;2024-03-23T05:58:48;10.30;99.90
13472;DHT22;6808;49.444;11.034;2024-03-23T06:01:14;10.40;99.90
13472;DHT22;6808;49.444;11.034;2024-03-23T06:03:40;10.50;99.90
13472;DHT22;6808;49.444;11.034;2024-03-23T06:06:05;10.50;99.90
13472;DHT22;6808;49.444;11.034;2024-03-23T06:08:35;10.60;99.90
13472;DHT22;6808;49.444;11.034;2024-03-23T06:11:01;10.60;99.90
13472;DHT22;6808;49.444;11.034;2024-03-23T06:13:27;10.70;99.90
13472;DHT22;6808;49.444;11.034;2024-03-23T06:15:55;10.80;99.90
13472;DHT22;6808;49.444;11.034;2024-03-23T06:18:21;10.60;99.90
13472;DHT22;6808;49.444;11.034;2024-03-23T06:20:46;10.50;99.90
13472;DHT22;6808;49.444;11.034;2024-03-23T06:23:12;10.40;99.90
13472;DHT22;6808;49.444;11.034;2024-03-23T06:25:38;10.40;99.90
13472;DHT22;6808;49.444;11.034;2024-03-23T06:28:04;10.30;99.90
13472;DHT22;6808;49.444;11.034;2024-03-23T06:30:30;10.30;99.90
13472;DHT22;6808;49.444;11.034;2024-03-23T06:32:57;10.50;99.90
13472;DHT22;6808;49.444;11.034;2024-03-23T06:35:23;10.90;99.90
13472;DHT22;6808;49.444;11.034;2024-03-23T06:37:48;10.20;99.90
13472;DHT22;6808;49.444;11.034;2024-03-23T06:40:14;10.20;99.90
13472;DHT22;6808;49.444;11.034;2024-03-23T06:42:40;10.20;99.90
13472;DHT22;6808;49.444;11.034;2024-03-23T06:45:06;10.20;99.90
13472;DHT22;6808;49.444;11.034;2024-03-23T06:47:32;10.30;99.90
13472;DHT22;6808;49.444;11.034;2024-03-23T06:49:59;10.30;99.90
13472;DHT22;6808;49.444;11.034;2024-03-23T06:52:27;10.30;99.90
13472;DHT22;6808;49.444;11.034;2024-03-23T06:54:53;10.30;99.90
13472;DHT22;6808;49.444;11.034;2024-03-23T06:57:18;10.40;99.90
13472;DHT22;6808;49.444;11.034;2024-03-23T06:59:44;10.40;99.90
13472;DHT22;6808;49.444;11.034;2024-03-23T07:02:09;10.40;99.90
13472;DHT22;6808;49.444;11.034;2024-03-23T07:04:36;10.40;99.90
13472;DHT22;6808;49.444;11.034;2024-03-23T07:07:02;10.40;99.90
13472;DHT22;6808;49.444;11.034;2024-03-23T07:09:28;10.80;99.90
13472;DHT22;6808;49.444;11.034;2024-03-23T07:11:56;10.40;99.90
13472;DHT22;6808;49.444;11.034;2024-03-23T07:14:22;10.40;99.90
13472;DHT22;6808;49.444;11.034;2024-03-23T07:16:48;10.40;99.90
13472;DHT22;6808;49.444;11.034;2024-03-23T07:19:17;10.40;99.90
13472;DHT22;6808;49.444;11.034;2024-03-23T07:21:44;10.40;99.90
13472;DHT22;6808;49.444;11.034;2024-03-23T07:24:09;10.40;99.90
13472;DHT22;6808;49.444;11.034;2024-03-23T07:26:35;10.40;99.90
13472;DHT22;6808;49.444;11.034;2024-03-23T07:29:01;10.40;99.90
13472;DHT22;6808;49.444;11.034;2024-03-23T07:31:27;10.30;99.90
13472;DHT22;6808;49.444;11.034;2024-03-23T07:33:53;10.30;99.90
13472;DHT22;6808;49.444;11.034;2024-03-23T07:36:18;10.30;99.90
13472;DHT22;6808;49.444;11.034;2024-03-23T07:38:44;10.30;99.90
13472;DHT22;6808;49.444;11.034;2024-03-23T07:41:16;11.00;99.90
13472;DHT22;6808;49.444;11.034;2024-03-23T07:43:45;10.70;99.90
13472;DHT22;6808;49.444;11.034;2024-03-23T07:46:11;10.20;99.90
13472;DHT22;6808;49.444;11.034;2024-03-23T07:48:40;10.20;99.90
13472;DHT22;6808;49.444;11.034;2024-03-23T07:51:09;10.20;99.90
13472;DHT22;6808;49.444;11.034;2024-03-23T07:53:36;10.20;99.90
13472;DHT22;6808;49.444;11.034;2024-03-23T07:56:09;10.20;99.90
13472;DHT22;6808;49.444;11.034;2024-03-23T07:58:36;10.20;99.90
13472;DHT22;6808;49.444;11.034;2024-03-23T08:01:12;10.30;99.90
13472;DHT22;6808;49.444;11.034;2024-03-23T08:03:40;10.30;99.90
13472;DHT22;6808;49.444;11.034;2024-03-23T08:08:38;10.40;99.90
13472;DHT22;6808;49.444;11.034;2024-03-23T08:11:04;10.50;99.90
13472;DHT22;6808;49.444;11.034;2024-03-23T08:13:30;10.60;99.90
13472;DHT22;6808;49.444;11.034;2024-03-23T08:16:00;10.70;99.90
13472;DHT22;6808;49.444;11.034;2024-03-23T08:18:26;10.70;99.90
13472;DHT22;6808;49.444;11.034;2024-03-23T08:20:59;10.60;99.90
13472;DHT22;6808;49.444;11.034;2024-03-23T08:23:27;10.40;99.90
13472;DHT22;6808;49.444;11.034;2024-03-23T08:25:57;10.00;99.90
13472;DHT22;6808;49.444;11.034;2024-03-23T08:28:23;9.50;99.90
13472;DHT22;6808;49.444;11.034;2024-03-23T08:30:49;9.20;99.90
13472;DHT22;6808;49.444;11.034;2024-03-23T08:33:15;9.00;99.90
13472;DHT22;6808;49.444;11.034;2024-03-23T08:35:41;8.90;99.90
13472;DHT22;6808;49.444;11.034;2024-03-23T08:38:07;8.90;99.90
13472;DHT22;6808;49.444;11.034;2024-03-23T08:40:33;9.60;99.90
13472;DHT22;6808;49.444;11.034;2024-03-23T08:42:59;8.80;99.90
13472;DHT22;6808;49.444;11.034;2024-03-23T08:45:25;8.80;99.90
13472;DHT22;6808;49.444;11.034;2024-03-23T08:47:51;8.80;99.90
13472;DHT22;6808;49.444;11.034;2024-03-23T08:50:17;8.80;99.90
13472;DHT22;6808;49.444;11.034;2024-03-23T08:52:42;8.90;99.90
13472;DHT22;6808;49.444;11.034;2024-03-23T08:55:08;8.80;99.90
13472;DHT22;6808;49.444;11.034;2024-03-23T08:57:35;8.80;99.90
13472;DHT22;6808;49.444;11.034;2024-03-23T09:00:02;9.00;99.90
13472;DHT22;6808;49.444;11.034;2024-03-23T09:02:27;9.00;99.90
13472;DHT22;6808;49.444;11.034;2024-03-23T09:04:53;9.00;99.90
13472;DHT22;6808;49.444;11.034;2024-03-23T09:07:18;9.00;99.90
13472;DHT22;6808;49.444;11.034;2024-03-23T09:09:44;8.90;99.90
13472;DHT22;6808;49.444;11.034;2024-03-23T09:12:09;8.80;99.90
13472;DHT22;6808;49.444;11.034;2024-03-23T09:14:35;8.70;99.90
13472;DHT22;6808;49.444;11.034;2024-03-23T09:17:01;8.70;99.90
13472;DHT22;6808;49.444;11.034;2024-03-23T09:19:29;8.80;99.90
13472;DHT22;6808;49.444;11.034;2024-03-23T09:21:55;9.00;99.90
13472;DHT22;6808;49.444;11.034;2024-03-23T09:24:21;9.00;99.90
13472;DHT22;6808;49.444;11.034;2024-03-23T09:26:47;9.00;99.90
13472;DHT22;6808;49.444;11.034;2024-03-23T09:29:13;9.00;99.90
13472;DHT22;6808;49.444;11.034;2024-03-23T09:31:39;9.00;99.90
13472;DHT22;6808;49.444;11.034;2024-03-23T09:34:06;9.00;99.90
13472;DHT22;6808;49.444;11.034;2024-03-23T09:36:31;9.00;99.90
13472;DHT22;6808;49.444;11.034;2024-03-23T09:38:57;9.00;99.90
13472;DHT22;6808;49.444;11.034;2024-03-23T09:41:22;8.90;99.90
13472;DHT22;6808;49.444;11.034;2024-03-23T09:43:48;8.70;99.90
13472;DHT22;6808;49.444;11.034;2024-03-23T09:46:15;8.50;99.90
13472;DHT22;6808;49.444;11.034;2024-03-23T09:48:41;8.50;99.90
13472;DHT22;6808;49.444;11.034;2024-03-23T09:51:09;8.60;99.60
13472;DHT22;6808;49.444;11.034;2024-03-23T09:53:35;8.60;99.50
13472;DHT22;6808;49.444;11.034;2024-03-23T09:56:00;8.80;99.70
13472;DHT22;6808;49.444;11.034;2024-03-23T09:58:26;9.00;99.40
13472;DHT22;6808;49.444;11.034;2024-03-23T10:00:51;9.20;99.50
13472;DHT22;6808;49.444;11.034;2024-03-23T10:03:17;9.40;99.30
13472;DHT22;6808;49.444;11.034;2024-03-23T10:05:43;9.70;98.40
13472;DHT22;6808;49.444;11.034;2024-03-23T10:10:44;9.70;96.80
13472;DHT22;6808;49.444;11.034;2024-03-23T10:13:10;9.50;96.60
13472;DHT22;6808;49.444;11.034;2024-03-23T10:15:38;9.40;96.60
13472;DHT22;6808;49.444;11.034;2024-03-23T10:18:22;9.30;96.70
13472;DHT22;6808;49.444;11.034;2024-03-23T10:20:52;9.20;96.40
13472;DHT22;6808;49.444;11.034;2024-03-23T10:23:35;9.10;96.90
13472;DHT22;6808;49.444;11.034;2024-03-23T10:28:55;9.00;97.50
13472;DHT22;6808;49.444;11.034;2024-03-23T10:31:31;9.10;97.90
13472;DHT22;6808;49.444;11.034;2024-03-23T10:33:57;9.20;97.60
13472;DHT22;6808;49.444;11.034;2024-03-23T10:36:24;9.20;97.20
13472;DHT22;6808;49.444;11.034;2024-03-23T10:38:51;9.30;96.70
13472;DHT22;6808;49.444;11.034;2024-03-23T10:41:18;9.30;96.60
13472;DHT22;6808;49.444;11.034;2024-03-23T10:43:46;9.30;96.60
13472;DHT22;6808;49.444;11.034;2024-03-23T10:46:12;9.30;96.50
13472;DHT22;6808;49.444;11.034;2024-03-23T10:48:38;9.40;96.70
13472;DHT22;6808;49.444;11.034;2024-03-23T10:51:06;9.30;96.40
13472;DHT22;6808;49.444;11.034;2024-03-23T10:53:33;9.20;96.70
13472;DHT22;6808;49.444;11.034;2024-03-23T10:55:59;9.20;95.90
13472;DHT22;6808;49.444;11.034;2024-03-23T11:01:04;9.30;96.30
13472;DHT22;6808;49.444;11.034;2024-03-23T11:03:34;9.40;96.40
13472;DHT22;6808;49.444;11.034;2024-03-23T11:06:03;9.60;95.40
13472;DHT22;6808;49.444;11.034;2024-03-23T11:08:33;9.50;94.50
13472;DHT22;6808;49.444;11.034;2024-03-23T11:11:18;9.40;95.10
13472;DHT22;6808;49.444;11.034;2024-03-23T11:13:47;9.40;95.80
13472;DHT22;6808;49.444;11.034;2024-03-23T11:18:42;9.30;95.50
13472;DHT22;6808;49.444;11.034;2024-03-23T11:21:09;9.30;95.50
13472;DHT22;6808;49.444;11.034;2024-03-23T11:23:34;9.20;94.00
13472;DHT22;6808;49.444;11.034;2024-03-23T11:26:00;9.20;93.70
13472;DHT22;6808;49.444;11.034;2024-03-23T11:28:26;9.20;93.40
13472;DHT22;6808;49.444;11.034;2024-03-23T11:30:51;9.40;93.90
13472;DHT22;6808;49.444;11.034;2024-03-23T11:33:17;10.30;93.70
13472;DHT22;6808;49.444;11.034;2024-03-23T11:35:43;9.60;92.60
13472;DHT22;6808;49.444;11.034;2024-03-23T11:38:15;9.60;92.90
13472;DHT22;6808;49.444;11.034;2024-03-23T11:40:50;9.60;93.10
13472;DHT22;6808;49.444;11.034;2024-03-23T11:43:18;9.60;92.60
13472;DHT22;6808;49.444;11.034;2024-03-23T11:48:14;10.00;91.90
13472;DHT22;6808;49.444;11.034;2024-03-23T11:50:44;9.40;91.90
13472;DHT22;6808;49.444;11.034;2024-03-23T11:53:15;9.30;91.60
13472;DHT22;6808;49.444;11.034;2024-03-23T11:55:49;9.40;93.20
13472;DHT22;6808;49.444;11.034;2024-03-23T11:58:19;9.70;92.50
13472;DHT22;6808;49.444;11.034;2024-03-23T12:00:57;10.20;92.00
13472;DHT22;6808;49.444;11.034;2024-03-23T12:03:24;10.60;90.10
13472;DHT22;6808;49.444;11.034;2024-03-23T12:05:55;10.90;87.00
13472;DHT22;6808;49.444;11.034;2024-03-23T12:11:06;10.80;84.60
13472;DHT22;6808;49.444;11.034;2024-03-23T12:13:33;10.80;81.40
13472;DHT22;6808;49.444;11.034;2024-03-23T12:16:18;11.00;82.50
13472;DHT22;6808;49.444;11.034;2024-03-23T12:18:49;11.10;79.00
13472;DHT22;6808;49.444;11.034;2024-03-23T12:21:16;11.10;79.30
13472;DHT22;6808;49.444;11.034;2024-03-23T12:23:43;11.40;82.80
13472;DHT22;6808;49.444;11.034;2024-03-23T12:26:12;11.30;80.10
13472;DHT22;6808;49.444;11.034;2024-03-23T12:28:49;11.30;79.20
13472;DHT22;6808;49.444;11.034;2024-03-23T12:31:22;11.30;79.10
13472;DHT22;6808;49.444;11.034;2024-03-23T12:33:48;11.40;78.40
13472;DHT22;6808;49.444;11.034;2024-03-23T12:36:13;11.40;76.50
13472;DHT22;6808;49.444;11.034;2024-03-23T12:38:42;11.70;76.50
13472;DHT22;6808;49.444;11.034;2024-03-23T12:41:09;12.00;79.20
13472;DHT22;6808;49.444;11.034;2024-03-23T12:43:35;12.30;75.10
13472;DHT22;6808;49.444;11.034;2024-03-23T12:46:03;12.40;71.20
13472;DHT22;6808;49.444;11.034;2024-03-23T12:48:28;12.50;69.10
13472;DHT22;6808;49.444;11.034;2024-03-23T12:50:57;12.50;63.10
13472;DHT22;6808;49.444;11.034;2024-03-23T12:53:23;12.30;61.60
13472;DHT22;6808;49.444;11.034;2024-03-23T12:55:48;11.90;62.40
13472;DHT22;6808;49.444;11.034;2024-03-23T12:58:14;11.90;65.80
13472;DHT22;6808;49.444;11.034;2024-03-23T13:00:39;11.70;65.90
13472;DHT22;6808;49.444;11.034;2024-03-23T13:03:05;11.50;65.60
13472;DHT22;6808;49.444;11.034;2024-03-23T13:05:30;11.50;67.00
13472;DHT22;6808;49.444;11.034;2024-03-23T13:07:56;11.30;65.50
13472;DHT22;6808;49.444;11.034;2024-03-23T13:10:22;11.10;68.00
13472;DHT22;6808;49.444;11.034;2024-03-23T13:12:47;11.30;68.90
13472;DHT22;6808;49.444;11.034;2024-03-23T13:15:13;11.40;68.90
13472;DHT22;6808;49.444;11.034;2024-03-23T13:17:42;11.40;66.30
13472;DHT22;6808;49.444;11.034;2024-03-23T13:20:10;11.20;66.50
13472;DHT22;6808;49.444;11.034;2024-03-23T13:22:47;11.20;66.70
13472;DHT22;6808;49.444;11.034;2024-03-23T13:25:14;11.30;71.00
13472;DHT22;6808;49.444;11.034;2024-03-23T13:27:39;11.50;67.20
13472;DHT22;6808;49.444;11.034;2024-03-23T13:30:12;11.70;73.00
13472;DHT22;6808;49.444;11.034;2024-03-23T13:32:40;11.90;68.30
13472;DHT22;6808;49.444;11.034;2024-03-23T13:35:06;12.10;66.40
13472;DHT22;6808;49.444;11.034;2024-03-23T13:37:31;12.20;65.90
13472;DHT22;6808;49.444;11.034;2024-03-23T13:39:57;12.30;64.30
13472;DHT22;6808;49.444;11.034;2024-03-23T13:42:22;12.30;62.10
13472;DHT22;6808;49.444;11.034;2024-03-23T13:44:51;12.30;60.90
13472;DHT22;6808;49.444;11.034;2024-03-23T13:47:16;12.40;60.40
13472;DHT22;6808;49.444;11.034;2024-03-23T13:49:42;12.30;60.70
13472;DHT22;6808;49.444;11.034;2024-03-23T13:52:07;12.40;63.00
13472;DHT22;6808;49.444;11.034;2024-03-23T13:54:33;12.50;59.40
13472;DHT22;6808;49.444;11.034;2024-03-23T13:56:59;12.60;58.50
13472;DHT22;6808;49.444;11.034;2024-03-23T13:59:24;12.60;59.50
13472;DHT22;6808;49.444;11.034;2024-03-23T14:01:50;12.70;58.90
13472;DHT22;6808;49.444;11.034;2024-03-23T14:04:16;12.90;59.40
13472;DHT22;6808;49.444;11.034;2024-03-23T14:06:43;14.30;59.40
13472;DHT22;6808;49.444;11.034;2024-03-23T14:09:11;13.00;57.20
13472;DHT22;6808;49.444;11.034;2024-03-23T14:11:37;13.00;57.20
13472;DHT22;6808;49.444;11.034;2024-03-23T14:14:03;12.80;55.80
13472;DHT22;6808;49.444;11.034;2024-03-23T14:16:32;12.80;56.80
13472;DHT22;6808;49.444;11.034;2024-03-23T14:18:58;12.70;57.50
13472;DHT22;6808;49.444;11.034;2024-03-23T14:21:24;12.70;57.40
13472;DHT22;6808;49.444;11.034;2024-03-23T14:23:55;12.70;56.10
13472;DHT22;6808;49.444;11.034;2024-03-23T14:26:21;12.70;57.50
13472;DHT22;6808;49.444;11.034;2024-03-23T14:28:47;12.70;57.10
13472;DHT22;6808;49.444;11.034;2024-03-23T14:31:12;12.60;56.50
13472;DHT22;6808;49.444;11.034;2024-03-23T14:33:39;12.50;55.50
13472;DHT22;6808;49.444;11.034;2024-03-23T14:36:12;12.70;56.50
13472;DHT22;6808;49.444;11.034;2024-03-23T14:38:38;12.00;55.30
13472;DHT22;6808;49.444;11.034;2024-03-23T14:41:04;11.70;55.50
13472;DHT22;6808;49.444;11.034;2024-03-23T14:43:30;11.50;55.70
13472;DHT22;6808;49.444;11.034;2024-03-23T14:46:14;11.40;55.90
13472;DHT22;6808;49.444;11.034;2024-03-23T14:48:42;10.40;55.00
13472;DHT22;6808;49.444;11.034;2024-03-23T14:51:08;11.10;55.60
13472;DHT22;6808;49.444;11.034;2024-03-23T14:53:35;11.10;56.60
13472;DHT22;6808;49.444;11.034;2024-03-23T14:56:02;10.90;56.90
13472;DHT22;6808;49.444;11.034;2024-03-23T14:58:28;10.90;57.60
13472;DHT22;6808;49.444;11.034;2024-03-23T15:01:03;10.80;59.50
13472;DHT22;6808;49.444;11.034;2024-03-23T15:03:29;10.70;59.30
13472;DHT22;6808;49.444;11.034;2024-03-23T15:05:58;10.60;61.70
13472;DHT22;6808;49.444;11.034;2024-03-23T15:08:24;10.50;63.00
13472;DHT22;6808;49.444;11.034;2024-03-23T15:10:50;10.40;65.60
13472;DHT22;6808;49.444;11.034;2024-03-23T15:13:16;10.10;72.00
13472;DHT22;6808;49.444;11.034;2024-03-23T15:15:42;9.20;93.70
13472;DHT22;6808;49.444;11.034;2024-03-23T15:18:14;8.40;98.90
13472;DHT22;6808;49.444;11.034;2024-03-23T15:20:41;7.80;99.90
13472;DHT22;6808;49.444;11.034;2024-03-23T15:23:07;7.50;99.90
13472;DHT22;6808;49.444;11.034;2024-03-23T15:25:33;7.30;99.90
13472;DHT22;6808;49.444;11.034;2024-03-23T15:27:59;7.50;99.90
13472;DHT22;6808;49.444;11.034;2024-03-23T15:30:27;7.70;99.90
13472;DHT22;6808;49.444;11.034;2024-03-23T15:32:53;7.90;99.90
13472;DHT22;6808;49.444;11.034;2024-03-23T15:35:19;7.90;99.90
13472;DHT22;6808;49.444;11.034;2024-03-23T15:37:48;8.00;99.90
13472;DHT22;6808;49.444;11.034;2024-03-23T15:40:13;8.10;99.90
13472;DHT22;6808;49.444;11.034;2024-03-23T15:42:39;8.20;99.90
13472;DHT22;6808;49.444;11.034;2024-03-23T15:45:08;8.30;99.90
13472;DHT22;6808;49.444;11.034;2024-03-23T15:47:35;8.40;99.90
13472;DHT22;6808;49.444;11.034;2024-03-23T15:50:01;8.40;99.90
13472;DHT22;6808;49.444;11.034;2024-03-23T15:52:28;8.50;99.90
13472;DHT22;6808;49.444;11.034;2024-03-23T15:54:54;8.60;99.90
13472;DHT22;6808;49.444;11.034;2024-03-23T15:57:21;8.50;99.20
13472;DHT22;6808;49.444;11.034;2024-03-23T15:59:47;8.50;99.40
13472;DHT22;6808;49.444;11.034;2024-03-23T16:02:12;8.40;99.40
13472;DHT22;6808;49.444;11.034;2024-03-23T16:04:38;8.40;99.10
13472;DHT22;6808;49.444;11.034;2024-03-23T16:07:03;8.50;99.30
13472;DHT22;6808;49.444;11.034;2024-03-23T16:09:29;8.50;98.90
13472;DHT22;6808;49.444;11.034;2024-03-23T16:11:54;8.60;98.70
13472;DHT22;6808;49.444;11.034;2024-03-23T16:14:23;8.60;99.20
13472;DHT22;6808;49.444;11.034;2024-03-23T16:16:49;8.60;98.80
13472;DHT22;6808;49.444;11.034;2024-03-23T16:19:14;8.60;98.40
13472;DHT22;6808;49.444;11.034;2024-03-23T16:21:40;8.60;98.10
13472;DHT22;6808;49.444;11.034;2024-03-23T16:24:06;8.40;96.90
13472;DHT22;6808;49.444;11.034;2024-03-23T16:26:33;8.60;97.40
13472;DHT22;6808;49.444;11.034;2024-03-23T16:28:59;8.30;97.50
13472;DHT22;6808;49.444;11.034;2024-03-23T16:31:24;8.40;97.70
13472;DHT22;6808;49.444;11.034;2024-03-23T16:33:50;8.40;97.20
13472;DHT22;6808;49.444;11.034;2024-03-23T16:36:17;8.30;96.40
13472;DHT22;6808;49.444;11.034;2024-03-23T16:38:43;8.30;96.30
13472;DHT22;6808;49.444;11.034;2024-03-23T16:41:10;8.20;96.40
13472;DHT22;6808;49.444;11.034;2024-03-23T16:43:41;8.10;96.00
13472;DHT22;6808;49.444;11.034;2024-03-23T16:46:09;8.00;96.30